sensor_id;sensor_type;location;lat;lon;timestamp;P1;durP1;ratioP1;P2;durP2;ratioP2
25581;SDS011;13462;50.764;4.332;2022-09-12T00:01:24;17.85;;;13.15;;
25581;SDS011;13462;50.764;4.332;2022-09-12T00:03:55;15.20;;;12.30;;
25581;SDS011;13462;50.764;4.332;2022-09-12T00:06:27;13.23;;;10.27;;
25581;SDS011;13462;50.764;4.332;2022-09-12T00:08:58;14.02;;;11.57;;
25581;SDS011;13462;50.764;4.332;2022-09-12T00:11:33;17.25;;;12.65;;
25581;SDS011;13462;50.764;4.332;2022-09-12T00:14:01;20.52;;;14.35;;
25581;SDS011;13462;50.764;4.332;2022-09-12T00:16:28;18.48;;;14.65;;
25581;SDS011;13462;50.764;4.332;2022-09-12T00:18:56;20.15;;;15.65;;
25581;SDS011;13462;50.764;4.332;2022-09-12T00:21:22;24.08;;;15.82;;
25581;SDS011;13462;50.764;4.332;2022-09-12T00:23:48;19.50;;;15.02;;
25581;SDS011;13462;50.764;4.332;2022-09-12T00:26:15;19.58;;;13.00;;
25581;SDS011;13462;50.764;4.332;2022-09-12T00:28:41;14.93;;;12.82;;
25581;SDS011;13462;50.764;4.332;2022-09-12T00:31:08;16.88;;;13.40;;
25581;SDS011;13462;50.764;4.332;2022-09-12T00:33:36;22.48;;;14.57;;
25581;SDS011;13462;50.764;4.332;2022-09-12T00:36:04;17.92;;;13.70;;
25581;SDS011;13462;50.764;4.332;2022-09-12T00:38:32;22.42;;;15.90;;
25581;SDS011;13462;50.764;4.332;2022-09-12T00:40:57;20.80;;;14.38;;
25581;SDS011;13462;50.764;4.332;2022-09-12T00:45:58;26.80;;;18.20;;
25581;SDS011;13462;50.764;4.332;2022-09-12T00:48:31;25.05;;;18.25;;
25581;SDS011;13462;50.764;4.332;2022-09-12T00:51:03;25.48;;;18.95;;
25581;SDS011;13462;50.764;4.332;2022-09-12T00:53:28;26.83;;;18.67;;
25581;SDS011;13462;50.764;4.332;2022-09-12T00:55:55;27.05;;;18.63;;
25581;SDS011;13462;50.764;4.332;2022-09-12T00:58:22;28.83;;;18.67;;
25581;SDS011;13462;50.764;4.332;2022-09-12T01:00:51;31.20;;;19.30;;
25581;SDS011;13462;50.764;4.332;2022-09-12T01:03:18;31.58;;;19.45;;
25581;SDS011;13462;50.764;4.332;2022-09-12T01:05:48;30.80;;;21.35;;
25581;SDS011;13462;50.764;4.332;2022-09-12T01:08:29;27.35;;;19.60;;
25581;SDS011;13462;50.764;4.332;2022-09-12T01:10:58;30.73;;;20.70;;
25581;SDS011;13462;50.764;4.332;2022-09-12T01:13:23;30.88;;;21.30;;
25581;SDS011;13462;50.764;4.332;2022-09-12T01:15:50;33.80;;;21.90;;
25581;SDS011;13462;50.764;4.332;2022-09-12T01:18:21;37.60;;;23.02;;
25581;SDS011;13462;50.764;4.332;2022-09-12T01:26:28;25.02;;;18.90;;
25581;SDS011;13462;50.764;4.332;2022-09-12T01:32:34;37.60;;;21.50;;
25581;SDS011;13462;50.764;4.332;2022-09-12T01:35:23;31.77;;;19.88;;
25581;SDS011;13462;50.764;4.332;2022-09-12T01:38:10;28.40;;;18.10;;
25581;SDS011;13462;50.764;4.332;2022-09-12T01:41:15;28.38;;;18.52;;
25581;SDS011;13462;50.764;4.332;2022-09-12T01:47:08;30.10;;;19.88;;
25581;SDS011;13462;50.764;4.332;2022-09-12T01:49:37;28.33;;;19.65;;
25581;SDS011;13462;50.764;4.332;2022-09-12T01:55:15;26.38;;;18.20;;
25581;SDS011;13462;50.764;4.332;2022-09-12T02:00:26;30.40;;;19.45;;
25581;SDS011;13462;50.764;4.332;2022-09-12T02:02:59;28.50;;;19.48;;
25581;SDS011;13462;50.764;4.332;2022-09-12T02:05:35;28.35;;;19.33;;
25581;SDS011;13462;50.764;4.332;2022-09-12T02:08:20;31.60;;;19.35;;
25581;SDS011;13462;50.764;4.332;2022-09-12T02:11:10;26.48;;;18.65;;
25581;SDS011;13462;50.764;4.332;2022-09-12T02:13:47;31.92;;;19.65;;
25581;SDS011;13462;50.764;4.332;2022-09-12T02:16:21;30.67;;;19.60;;
25581;SDS011;13462;50.764;4.332;2022-09-12T02:18:52;32.47;;;20.17;;
25581;SDS011;13462;50.764;4.332;2022-09-12T02:21:21;31.38;;;20.90;;
25581;SDS011;13462;50.764;4.332;2022-09-12T02:23:51;32.83;;;22.83;;
25581;SDS011;13462;50.764;4.332;2022-09-12T02:26:21;31.58;;;20.23;;
25581;SDS011;13462;50.764;4.332;2022-09-12T02:28:52;37.67;;;21.95;;
25581;SDS011;13462;50.764;4.332;2022-09-12T02:31:28;36.00;;;22.10;;
25581;SDS011;13462;50.764;4.332;2022-09-12T02:34:05;33.65;;;22.30;;
25581;SDS011;13462;50.764;4.332;2022-09-12T02:36:42;42.28;;;25.00;;
25581;SDS011;13462;50.764;4.332;2022-09-12T02:39:15;35.17;;;22.45;;
25581;SDS011;13462;50.764;4.332;2022-09-12T02:41:54;36.53;;;23.20;;
25581;SDS011;13462;50.764;4.332;2022-09-12T02:44:22;36.08;;;24.42;;
25581;SDS011;13462;50.764;4.332;2022-09-12T02:46:50;40.60;;;24.02;;
25581;SDS011;13462;50.764;4.332;2022-09-12T02:49:19;39.05;;;24.73;;
25581;SDS011;13462;50.764;4.332;2022-09-12T02:51:46;38.05;;;23.20;;
25581;SDS011;13462;50.764;4.332;2022-09-12T02:54:13;40.20;;;25.13;;
25581;SDS011;13462;50.764;4.332;2022-09-12T02:56:40;43.85;;;25.27;;
25581;SDS011;13462;50.764;4.332;2022-09-12T02:59:07;41.13;;;27.15;;
25581;SDS011;13462;50.764;4.332;2022-09-12T03:04:22;43.45;;;25.40;;
25581;SDS011;13462;50.764;4.332;2022-09-12T03:07:31;43.35;;;25.83;;
25581;SDS011;13462;50.764;4.332;2022-09-12T03:10:22;49.47;;;28.08;;
25581;SDS011;13462;50.764;4.332;2022-09-12T03:28:50;51.28;;;28.10;;
25581;SDS011;13462;50.764;4.332;2022-09-12T03:31:18;51.60;;;29.10;;
25581;SDS011;13462;50.764;4.332;2022-09-12T03:33:44;49.80;;;27.83;;
25581;SDS011;13462;50.764;4.332;2022-09-12T03:36:20;45.85;;;28.05;;
25581;SDS011;13462;50.764;4.332;2022-09-12T03:38:48;45.85;;;27.92;;
25581;SDS011;13462;50.764;4.332;2022-09-12T03:41:13;47.78;;;29.30;;
25581;SDS011;13462;50.764;4.332;2022-09-12T03:43:39;48.38;;;27.77;;
25581;SDS011;13462;50.764;4.332;2022-09-12T03:46:05;51.47;;;27.05;;
25581;SDS011;13462;50.764;4.332;2022-09-12T03:48:31;47.90;;;25.75;;
25581;SDS011;13462;50.764;4.332;2022-09-12T03:51:00;45.00;;;26.77;;
25581;SDS011;13462;50.764;4.332;2022-09-12T03:53:28;48.60;;;27.73;;
25581;SDS011;13462;50.764;4.332;2022-09-12T03:55:55;44.25;;;26.38;;
25581;SDS011;13462;50.764;4.332;2022-09-12T03:58:20;45.20;;;25.60;;
25581;SDS011;13462;50.764;4.332;2022-09-12T04:00:46;44.17;;;26.35;;
25581;SDS011;13462;50.764;4.332;2022-09-12T04:03:12;41.17;;;25.17;;
25581;SDS011;13462;50.764;4.332;2022-09-12T04:05:37;43.70;;;24.98;;
25581;SDS011;13462;50.764;4.332;2022-09-12T04:08:03;44.13;;;25.00;;
25581;SDS011;13462;50.764;4.332;2022-09-12T04:10:28;46.35;;;25.73;;
25581;SDS011;13462;50.764;4.332;2022-09-12T04:12:55;40.40;;;23.75;;
25581;SDS011;13462;50.764;4.332;2022-09-12T04:15:21;39.55;;;24.75;;
25581;SDS011;13462;50.764;4.332;2022-09-12T04:17:46;43.60;;;24.83;;
25581;SDS011;13462;50.764;4.332;2022-09-12T04:20:12;38.20;;;23.25;;
25581;SDS011;13462;50.764;4.332;2022-09-12T04:22:38;39.10;;;23.02;;
25581;SDS011;13462;50.764;4.332;2022-09-12T04:25:04;44.17;;;25.67;;
25581;SDS011;13462;50.764;4.332;2022-09-12T04:27:30;38.38;;;23.90;;
25581;SDS011;13462;50.764;4.332;2022-09-12T04:29:55;39.47;;;23.92;;
25581;SDS011;13462;50.764;4.332;2022-09-12T04:32:21;38.67;;;23.08;;
25581;SDS011;13462;50.764;4.332;2022-09-12T04:34:47;34.83;;;21.92;;
25581;SDS011;13462;50.764;4.332;2022-09-12T04:37:13;40.45;;;23.38;;
25581;SDS011;13462;50.764;4.332;2022-09-12T04:39:38;39.05;;;23.65;;
25581;SDS011;13462;50.764;4.332;2022-09-12T04:42:05;37.35;;;22.60;;
25581;SDS011;13462;50.764;4.332;2022-09-12T04:44:30;40.97;;;23.60;;
25581;SDS011;13462;50.764;4.332;2022-09-12T04:46:56;42.90;;;23.60;;
25581;SDS011;13462;50.764;4.332;2022-09-12T04:49:22;41.53;;;23.02;;
25581;SDS011;13462;50.764;4.332;2022-09-12T04:51:47;41.63;;;23.95;;
25581;SDS011;13462;50.764;4.332;2022-09-12T04:54:17;44.15;;;25.20;;
25581;SDS011;13462;50.764;4.332;2022-09-12T04:56:44;40.13;;;25.27;;
25581;SDS011;13462;50.764;4.332;2022-09-12T04:59:12;39.65;;;22.88;;
25581;SDS011;13462;50.764;4.332;2022-09-12T05:01:39;44.03;;;24.73;;
25581;SDS011;13462;50.764;4.332;2022-09-12T05:04:05;42.45;;;23.33;;
25581;SDS011;13462;50.764;4.332;2022-09-12T05:06:32;44.10;;;25.63;;
25581;SDS011;13462;50.764;4.332;2022-09-12T05:09:00;40.88;;;23.10;;
25581;SDS011;13462;50.764;4.332;2022-09-12T05:11:27;38.95;;;24.02;;
25581;SDS011;13462;50.764;4.332;2022-09-12T05:13:55;39.53;;;23.13;;
25581;SDS011;13462;50.764;4.332;2022-09-12T05:16:23;42.75;;;24.50;;
25581;SDS011;13462;50.764;4.332;2022-09-12T05:18:50;38.00;;;23.13;;
25581;SDS011;13462;50.764;4.332;2022-09-12T05:21:18;42.20;;;25.08;;
25581;SDS011;13462;50.764;4.332;2022-09-12T05:23:45;39.08;;;22.95;;
25581;SDS011;13462;50.764;4.332;2022-09-12T05:26:14;39.15;;;23.10;;
25581;SDS011;13462;50.764;4.332;2022-09-12T05:28:41;43.13;;;23.83;;
25581;SDS011;13462;50.764;4.332;2022-09-12T05:31:09;38.88;;;22.63;;
25581;SDS011;13462;50.764;4.332;2022-09-12T05:33:41;35.47;;;21.98;;
25581;SDS011;13462;50.764;4.332;2022-09-12T05:36:10;37.78;;;23.23;;
25581;SDS011;13462;50.764;4.332;2022-09-12T05:38:42;36.90;;;22.48;;
25581;SDS011;13462;50.764;4.332;2022-09-12T05:41:08;35.42;;;21.50;;
25581;SDS011;13462;50.764;4.332;2022-09-12T05:43:38;38.45;;;22.17;;
25581;SDS011;13462;50.764;4.332;2022-09-12T05:46:16;37.38;;;22.98;;
25581;SDS011;13462;50.764;4.332;2022-09-12T05:48:43;38.10;;;22.63;;
25581;SDS011;13462;50.764;4.332;2022-09-12T05:51:16;34.70;;;22.02;;
25581;SDS011;13462;50.764;4.332;2022-09-12T05:53:46;35.10;;;22.38;;
25581;SDS011;13462;50.764;4.332;2022-09-12T05:56:18;33.00;;;21.15;;
25581;SDS011;13462;50.764;4.332;2022-09-12T05:58:47;33.50;;;19.90;;
25581;SDS011;13462;50.764;4.332;2022-09-12T06:01:18;31.98;;;19.55;;
25581;SDS011;13462;50.764;4.332;2022-09-12T06:03:45;31.02;;;19.65;;
25581;SDS011;13462;50.764;4.332;2022-09-12T06:06:12;30.50;;;19.25;;
25581;SDS011;13462;50.764;4.332;2022-09-12T06:08:40;29.88;;;18.17;;
25581;SDS011;13462;50.764;4.332;2022-09-12T06:11:08;30.45;;;19.52;;
25581;SDS011;13462;50.764;4.332;2022-09-12T06:13:38;27.90;;;19.15;;
25581;SDS011;13462;50.764;4.332;2022-09-12T06:16:07;27.55;;;18.30;;
25581;SDS011;13462;50.764;4.332;2022-09-12T06:18:35;29.92;;;18.38;;
25581;SDS011;13462;50.764;4.332;2022-09-12T06:21:05;24.98;;;16.67;;
25581;SDS011;13462;50.764;4.332;2022-09-12T06:23:35;22.25;;;16.20;;
25581;SDS011;13462;50.764;4.332;2022-09-12T06:26:01;21.73;;;15.68;;
25581;SDS011;13462;50.764;4.332;2022-09-12T06:28:28;28.13;;;17.20;;
25581;SDS011;13462;50.764;4.332;2022-09-12T06:31:00;26.20;;;16.30;;
25581;SDS011;13462;50.764;4.332;2022-09-12T06:33:34;22.10;;;15.40;;
25581;SDS011;13462;50.764;4.332;2022-09-12T06:36:07;25.60;;;16.15;;
25581;SDS011;13462;50.764;4.332;2022-09-12T06:38:38;19.95;;;14.23;;
25581;SDS011;13462;50.764;4.332;2022-09-12T06:41:05;23.60;;;15.30;;
25581;SDS011;13462;50.764;4.332;2022-09-12T06:43:33;19.92;;;14.00;;
25581;SDS011;13462;50.764;4.332;2022-09-12T06:45:59;17.65;;;13.30;;
25581;SDS011;13462;50.764;4.332;2022-09-12T06:48:26;24.15;;;14.70;;
25581;SDS011;13462;50.764;4.332;2022-09-12T06:51:07;22.10;;;14.90;;
25581;SDS011;13462;50.764;4.332;2022-09-12T06:53:35;26.10;;;13.73;;
25581;SDS011;13462;50.764;4.332;2022-09-12T06:56:03;25.00;;;14.73;;
25581;SDS011;13462;50.764;4.332;2022-09-12T06:58:40;21.60;;;13.13;;
25581;SDS011;13462;50.764;4.332;2022-09-12T07:01:07;21.05;;;12.00;;
25581;SDS011;13462;50.764;4.332;2022-09-12T07:03:48;20.02;;;11.50;;
25581;SDS011;13462;50.764;4.332;2022-09-12T07:06:19;17.15;;;10.57;;
25581;SDS011;13462;50.764;4.332;2022-09-12T07:08:46;18.73;;;10.48;;
25581;SDS011;13462;50.764;4.332;2022-09-12T07:11:19;15.90;;;10.80;;
25581;SDS011;13462;50.764;4.332;2022-09-12T07:13:48;17.08;;;9.95;;
25581;SDS011;13462;50.764;4.332;2022-09-12T07:16:15;14.48;;;10.18;;
25581;SDS011;13462;50.764;4.332;2022-09-12T07:18:42;13.25;;;9.48;;
25581;SDS011;13462;50.764;4.332;2022-09-12T07:21:15;13.45;;;8.73;;
25581;SDS011;13462;50.764;4.332;2022-09-12T07:23:41;10.30;;;7.93;;
25581;SDS011;13462;50.764;4.332;2022-09-12T07:26:11;11.82;;;8.35;;
25581;SDS011;13462;50.764;4.332;2022-09-12T07:28:38;11.52;;;7.57;;
25581;SDS011;13462;50.764;4.332;2022-09-12T07:31:05;9.75;;;7.30;;
25581;SDS011;13462;50.764;4.332;2022-09-12T07:33:38;8.45;;;7.32;;
25581;SDS011;13462;50.764;4.332;2022-09-12T07:36:06;11.32;;;7.50;;
25581;SDS011;13462;50.764;4.332;2022-09-12T07:38:35;7.67;;;6.53;;
25581;SDS011;13462;50.764;4.332;2022-09-12T07:41:22;10.95;;;7.13;;
25581;SDS011;13462;50.764;4.332;2022-09-12T07:43:51;10.82;;;7.30;;
25581;SDS011;13462;50.764;4.332;2022-09-12T07:46:18;7.80;;;6.47;;
25581;SDS011;13462;50.764;4.332;2022-09-12T07:48:49;9.52;;;6.90;;
25581;SDS011;13462;50.764;4.332;2022-09-12T07:51:19;21.02;;;7.63;;
25581;SDS011;13462;50.764;4.332;2022-09-12T07:53:47;12.80;;;6.10;;
25581;SDS011;13462;50.764;4.332;2022-09-12T07:56:13;6.53;;;5.55;;
25581;SDS011;13462;50.764;4.332;2022-09-12T07:58:40;9.45;;;5.50;;
25581;SDS011;13462;50.764;4.332;2022-09-12T08:01:16;7.50;;;5.60;;
25581;SDS011;13462;50.764;4.332;2022-09-12T08:03:46;6.82;;;5.63;;
25581;SDS011;13462;50.764;4.332;2022-09-12T08:06:16;7.75;;;5.95;;
25581;SDS011;13462;50.764;4.332;2022-09-12T08:08:48;6.93;;;5.93;;
25581;SDS011;13462;50.764;4.332;2022-09-12T08:11:16;6.50;;;5.35;;
25581;SDS011;13462;50.764;4.332;2022-09-12T08:13:43;5.72;;;5.22;;
25581;SDS011;13462;50.764;4.332;2022-09-12T08:16:11;8.60;;;5.35;;
25581;SDS011;13462;50.764;4.332;2022-09-12T08:18:39;5.65;;;4.60;;
25581;SDS011;13462;50.764;4.332;2022-09-12T08:21:07;5.85;;;4.70;;
25581;SDS011;13462;50.764;4.332;2022-09-12T08:23:36;9.85;;;5.18;;
25581;SDS011;13462;50.764;4.332;2022-09-12T08:26:03;6.93;;;5.65;;
25581;SDS011;13462;50.764;4.332;2022-09-12T08:28:30;8.40;;;5.28;;
25581;SDS011;13462;50.764;4.332;2022-09-12T08:31:03;8.00;;;5.03;;
25581;SDS011;13462;50.764;4.332;2022-09-12T08:33:31;9.07;;;5.25;;
25581;SDS011;13462;50.764;4.332;2022-09-12T08:36:13;9.93;;;5.63;;
25581;SDS011;13462;50.764;4.332;2022-09-12T08:38:43;15.15;;;6.40;;
25581;SDS011;13462;50.764;4.332;2022-09-12T08:52:18;7.28;;;5.30;;
25581;SDS011;13462;50.764;4.332;2022-09-12T08:55:15;10.98;;;5.10;;
25581;SDS011;13462;50.764;4.332;2022-09-12T08:57:50;7.40;;;4.50;;
25581;SDS011;13462;50.764;4.332;2022-09-12T09:00:16;5.13;;;3.83;;
25581;SDS011;13462;50.764;4.332;2022-09-12T09:05:28;6.25;;;4.70;;
25581;SDS011;13462;50.764;4.332;2022-09-12T09:10:50;9.70;;;4.30;;
25581;SDS011;13462;50.764;4.332;2022-09-12T09:16:38;5.68;;;3.38;;
25581;SDS011;13462;50.764;4.332;2022-09-12T09:19:16;5.85;;;3.70;;
25581;SDS011;13462;50.764;4.332;2022-09-12T09:24:22;4.78;;;3.65;;
25581;SDS011;13462;50.764;4.332;2022-09-12T09:26:53;3.47;;;3.17;;
25581;SDS011;13462;50.764;4.332;2022-09-12T09:29:29;4.63;;;3.45;;
25581;SDS011;13462;50.764;4.332;2022-09-12T09:32:02;3.55;;;3.20;;
25581;SDS011;13462;50.764;4.332;2022-09-12T09:34:34;5.25;;;3.35;;
25581;SDS011;13462;50.764;4.332;2022-09-12T09:37:17;3.83;;;2.45;;
25581;SDS011;13462;50.764;4.332;2022-09-12T09:39:50;5.18;;;3.25;;
25581;SDS011;13462;50.764;4.332;2022-09-12T09:45:10;5.72;;;2.85;;
25581;SDS011;13462;50.764;4.332;2022-09-12T09:47:46;3.90;;;3.15;;
25581;SDS011;13462;50.764;4.332;2022-09-12T09:50:46;3.63;;;2.80;;
25581;SDS011;13462;50.764;4.332;2022-09-12T09:53:36;3.80;;;2.95;;
25581;SDS011;13462;50.764;4.332;2022-09-12T09:56:14;3.55;;;2.97;;
25581;SDS011;13462;50.764;4.332;2022-09-12T09:59:11;2.67;;;2.45;;
25581;SDS011;13462;50.764;4.332;2022-09-12T10:01:51;3.42;;;2.30;;
25581;SDS011;13462;50.764;4.332;2022-09-12T10:04:31;5.18;;;2.40;;
25581;SDS011;13462;50.764;4.332;2022-09-12T10:07:00;4.10;;;2.22;;
25581;SDS011;13462;50.764;4.332;2022-09-12T10:09:29;2.75;;;2.50;;
25581;SDS011;13462;50.764;4.332;2022-09-12T10:11:57;3.45;;;2.60;;
25581;SDS011;13462;50.764;4.332;2022-09-12T10:16:59;2.58;;;2.38;;
25581;SDS011;13462;50.764;4.332;2022-09-12T10:19:35;7.22;;;3.42;;
25581;SDS011;13462;50.764;4.332;2022-09-12T10:22:04;2.53;;;2.33;;
25581;SDS011;13462;50.764;4.332;2022-09-12T10:24:38;3.35;;;3.10;;
25581;SDS011;13462;50.764;4.332;2022-09-12T10:29:43;2.65;;;2.20;;
25581;SDS011;13462;50.764;4.332;2022-09-12T10:32:17;2.90;;;2.55;;
25581;SDS011;13462;50.764;4.332;2022-09-12T10:34:52;3.17;;;2.03;;
25581;SDS011;13462;50.764;4.332;2022-09-12T10:37:25;2.63;;;2.20;;
25581;SDS011;13462;50.764;4.332;2022-09-12T10:39:56;3.95;;;2.10;;
25581;SDS011;13462;50.764;4.332;2022-09-12T10:42:44;2.75;;;2.20;;
25581;SDS011;13462;50.764;4.332;2022-09-12T10:47:45;2.95;;;2.20;;
25581;SDS011;13462;50.764;4.332;2022-09-12T10:50:24;5.90;;;2.45;;
25581;SDS011;13462;50.764;4.332;2022-09-12T10:53:11;3.28;;;2.30;;
25581;SDS011;13462;50.764;4.332;2022-09-12T10:56:19;3.33;;;2.40;;
25581;SDS011;13462;50.764;4.332;2022-09-12T10:58:54;14.25;;;3.70;;
25581;SDS011;13462;50.764;4.332;2022-09-12T11:07:24;3.05;;;2.33;;
25581;SDS011;13462;50.764;4.332;2022-09-12T11:15:22;2.97;;;2.08;;
25581;SDS011;13462;50.764;4.332;2022-09-12T11:18:10;4.10;;;2.22;;
25581;SDS011;13462;50.764;4.332;2022-09-12T11:21:00;10.77;;;2.75;;
25581;SDS011;13462;50.764;4.332;2022-09-12T11:34:45;4.43;;;1.88;;
25581;SDS011;13462;50.764;4.332;2022-09-12T11:42:44;7.22;;;1.90;;
25581;SDS011;13462;50.764;4.332;2022-09-12T11:45:17;4.20;;;1.90;;
25581;SDS011;13462;50.764;4.332;2022-09-12T11:47:48;4.13;;;1.92;;
25581;SDS011;13462;50.764;4.332;2022-09-12T11:50:24;2.65;;;1.73;;
25581;SDS011;13462;50.764;4.332;2022-09-12T11:52:53;1.83;;;1.70;;
25581;SDS011;13462;50.764;4.332;2022-09-12T11:55:28;13.52;;;3.25;;
25581;SDS011;13462;50.764;4.332;2022-09-12T11:58:01;2.00;;;1.70;;
25581;SDS011;13462;50.764;4.332;2022-09-12T12:00:35;2.05;;;1.85;;
25581;SDS011;13462;50.764;4.332;2022-09-12T12:05:39;3.17;;;2.00;;
25581;SDS011;13462;50.764;4.332;2022-09-12T12:08:25;2.63;;;1.60;;
25581;SDS011;13462;50.764;4.332;2022-09-12T12:13:30;5.47;;;1.60;;
25581;SDS011;13462;50.764;4.332;2022-09-12T12:16:13;2.75;;;1.60;;
25581;SDS011;13462;50.764;4.332;2022-09-12T12:18:45;2.90;;;1.83;;
25581;SDS011;13462;50.764;4.332;2022-09-12T12:27:22;4.20;;;2.22;;
25581;SDS011;13462;50.764;4.332;2022-09-12T12:43:44;1.95;;;1.80;;
25581;SDS011;13462;50.764;4.332;2022-09-12T12:46:13;2.47;;;1.83;;
25581;SDS011;13462;50.764;4.332;2022-09-12T12:53:59;2.13;;;1.92;;
25581;SDS011;13462;50.764;4.332;2022-09-12T12:56:28;1.77;;;1.30;;
25581;SDS011;13462;50.764;4.332;2022-09-12T12:59:02;2.65;;;1.58;;
25581;SDS011;13462;50.764;4.332;2022-09-12T13:01:43;1.85;;;1.70;;
25581;SDS011;13462;50.764;4.332;2022-09-12T13:04:14;4.15;;;2.10;;
25581;SDS011;13462;50.764;4.332;2022-09-12T13:06:43;1.70;;;1.60;;
25581;SDS011;13462;50.764;4.332;2022-09-12T13:11:46;3.05;;;1.55;;
25581;SDS011;13462;50.764;4.332;2022-09-12T13:17:06;1.92;;;1.60;;
25581;SDS011;13462;50.764;4.332;2022-09-12T13:19:43;2.15;;;1.70;;
25581;SDS011;13462;50.764;4.332;2022-09-12T13:22:09;2.22;;;2.03;;
25581;SDS011;13462;50.764;4.332;2022-09-12T13:24:42;4.18;;;1.85;;
25581;SDS011;13462;50.764;4.332;2022-09-12T13:27:20;2.85;;;1.83;;
25581;SDS011;13462;50.764;4.332;2022-09-12T13:29:47;2.70;;;1.95;;
25581;SDS011;13462;50.764;4.332;2022-09-12T13:32:14;3.17;;;1.58;;
25581;SDS011;13462;50.764;4.332;2022-09-12T13:39:49;4.85;;;1.70;;
25581;SDS011;13462;50.764;4.332;2022-09-12T13:42:39;2.72;;;1.67;;
25581;SDS011;13462;50.764;4.332;2022-09-12T13:45:22;1.73;;;1.60;;
25581;SDS011;13462;50.764;4.332;2022-09-12T13:47:52;2.88;;;1.70;;
25581;SDS011;13462;50.764;4.332;2022-09-12T13:50:24;2.80;;;1.42;;
25581;SDS011;13462;50.764;4.332;2022-09-12T13:52:53;1.60;;;1.50;;
25581;SDS011;13462;50.764;4.332;2022-09-12T13:55:30;2.17;;;1.50;;
25581;SDS011;13462;50.764;4.332;2022-09-12T13:58:14;2.28;;;1.92;;
25581;SDS011;13462;50.764;4.332;2022-09-12T14:00:43;1.60;;;1.50;;
25581;SDS011;13462;50.764;4.332;2022-09-12T14:03:20;2.45;;;1.75;;
25581;SDS011;13462;50.764;4.332;2022-09-12T14:06:10;1.42;;;1.33;;
25581;SDS011;13462;50.764;4.332;2022-09-12T14:08:39;2.95;;;1.92;;
25581;SDS011;13462;50.764;4.332;2022-09-12T14:11:09;2.28;;;2.00;;
25581;SDS011;13462;50.764;4.332;2022-09-12T14:13:36;3.20;;;1.60;;
25581;SDS011;13462;50.764;4.332;2022-09-12T14:16:03;3.38;;;1.77;;
25581;SDS011;13462;50.764;4.332;2022-09-12T14:18:34;1.98;;;1.80;;
25581;SDS011;13462;50.764;4.332;2022-09-12T14:21:19;1.60;;;1.50;;
25581;SDS011;13462;50.764;4.332;2022-09-12T14:23:46;3.35;;;2.05;;
25581;SDS011;13462;50.764;4.332;2022-09-12T14:26:13;1.92;;;1.83;;
25581;SDS011;13462;50.764;4.332;2022-09-12T14:28:42;1.95;;;1.80;;
25581;SDS011;13462;50.764;4.332;2022-09-12T14:31:22;2.75;;;1.98;;
25581;SDS011;13462;50.764;4.332;2022-09-12T14:33:53;2.05;;;1.70;;
25581;SDS011;13462;50.764;4.332;2022-09-12T14:36:25;4.63;;;1.70;;
25581;SDS011;13462;50.764;4.332;2022-09-12T14:38:55;2.97;;;1.70;;
25581;SDS011;13462;50.764;4.332;2022-09-12T14:41:26;3.58;;;1.75;;
25581;SDS011;13462;50.764;4.332;2022-09-12T14:43:55;2.22;;;1.80;;
25581;SDS011;13462;50.764;4.332;2022-09-12T14:46:29;3.05;;;1.90;;
25581;SDS011;13462;50.764;4.332;2022-09-12T14:56:53;1.60;;;1.50;;
25581;SDS011;13462;50.764;4.332;2022-09-12T15:04:45;1.98;;;1.70;;
25581;SDS011;13462;50.764;4.332;2022-09-12T15:09:52;1.63;;;1.52;;
25581;SDS011;13462;50.764;4.332;2022-09-12T15:12:18;3.75;;;1.50;;
25581;SDS011;13462;50.764;4.332;2022-09-12T15:14:43;1.83;;;1.40;;
25581;SDS011;13462;50.764;4.332;2022-09-12T15:17:09;1.90;;;1.80;;
25581;SDS011;13462;50.764;4.332;2022-09-12T15:19:35;3.30;;;1.85;;
25581;SDS011;13462;50.764;4.332;2022-09-12T15:22:00;3.45;;;1.50;;
25581;SDS011;13462;50.764;4.332;2022-09-12T15:24:26;2.75;;;1.50;;
25581;SDS011;13462;50.764;4.332;2022-09-12T15:26:52;3.53;;;1.90;;
25581;SDS011;13462;50.764;4.332;2022-09-12T15:29:18;2.97;;;1.83;;
25581;SDS011;13462;50.764;4.332;2022-09-12T15:31:46;5.07;;;1.92;;
25581;SDS011;13462;50.764;4.332;2022-09-12T15:34:15;3.47;;;2.05;;
25581;SDS011;13462;50.764;4.332;2022-09-12T15:36:41;2.45;;;1.80;;
25581;SDS011;13462;50.764;4.332;2022-09-12T15:39:07;3.55;;;1.77;;
25581;SDS011;13462;50.764;4.332;2022-09-12T15:41:35;2.67;;;1.73;;
25581;SDS011;13462;50.764;4.332;2022-09-12T15:44:02;1.65;;;1.55;;
25581;SDS011;13462;50.764;4.332;2022-09-12T15:46:29;3.05;;;1.85;;
25581;SDS011;13462;50.764;4.332;2022-09-12T15:48:55;1.70;;;1.55;;
25581;SDS011;13462;50.764;4.332;2022-09-12T15:51:21;2.95;;;1.75;;
25581;SDS011;13462;50.764;4.332;2022-09-12T15:53:47;3.53;;;1.70;;
25581;SDS011;13462;50.764;4.332;2022-09-12T15:56:17;2.25;;;1.90;;
25581;SDS011;13462;50.764;4.332;2022-09-12T15:58:45;2.42;;;1.65;;
25581;SDS011;13462;50.764;4.332;2022-09-12T16:01:14;2.45;;;1.60;;
25581;SDS011;13462;50.764;4.332;2022-09-12T16:03:41;2.17;;;1.90;;
25581;SDS011;13462;50.764;4.332;2022-09-12T16:06:07;2.88;;;2.10;;
25581;SDS011;13462;50.764;4.332;2022-09-12T16:08:40;2.00;;;1.80;;
25581;SDS011;13462;50.764;4.332;2022-09-12T16:11:07;2.50;;;1.95;;
25581;SDS011;13462;50.764;4.332;2022-09-12T16:13:39;3.83;;;1.90;;
25581;SDS011;13462;50.764;4.332;2022-09-12T16:16:04;4.20;;;1.92;;
25581;SDS011;13462;50.764;4.332;2022-09-12T16:18:31;2.17;;;2.00;;
25581;SDS011;13462;50.764;4.332;2022-09-12T16:20:57;5.63;;;2.30;;
25581;SDS011;13462;50.764;4.332;2022-09-12T16:23:23;2.13;;;1.90;;
25581;SDS011;13462;50.764;4.332;2022-09-12T16:25:57;3.20;;;1.92;;
25581;SDS011;13462;50.764;4.332;2022-09-12T16:28:24;10.98;;;2.72;;
25581;SDS011;13462;50.764;4.332;2022-09-12T16:30:54;2.13;;;1.75;;
25581;SDS011;13462;50.764;4.332;2022-09-12T16:33:24;3.67;;;2.15;;
25581;SDS011;13462;50.764;4.332;2022-09-12T16:35:50;3.70;;;2.00;;
25581;SDS011;13462;50.764;4.332;2022-09-12T16:38:19;3.00;;;1.58;;
25581;SDS011;13462;50.764;4.332;2022-09-12T16:40:46;3.45;;;1.98;;
25581;SDS011;13462;50.764;4.332;2022-09-12T16:43:12;2.75;;;2.00;;
25581;SDS011;13462;50.764;4.332;2022-09-12T16:45:41;4.88;;;1.70;;
25581;SDS011;13462;50.764;4.332;2022-09-12T16:48:08;3.35;;;1.90;;
25581;SDS011;13462;50.764;4.332;2022-09-12T16:50:34;2.38;;;1.77;;
25581;SDS011;13462;50.764;4.332;2022-09-12T16:52:59;3.25;;;2.10;;
25581;SDS011;13462;50.764;4.332;2022-09-12T16:55:25;2.10;;;1.70;;
25581;SDS011;13462;50.764;4.332;2022-09-12T16:57:53;3.40;;;1.73;;
25581;SDS011;13462;50.764;4.332;2022-09-12T17:00:19;2.15;;;1.95;;
25581;SDS011;13462;50.764;4.332;2022-09-12T17:02:45;1.80;;;1.70;;
25581;SDS011;13462;50.764;4.332;2022-09-12T17:05:11;1.95;;;1.63;;
25581;SDS011;13462;50.764;4.332;2022-09-12T17:07:40;2.13;;;1.65;;
25581;SDS011;13462;50.764;4.332;2022-09-12T17:10:06;1.52;;;1.42;;
25581;SDS011;13462;50.764;4.332;2022-09-12T17:12:32;2.95;;;1.42;;
25581;SDS011;13462;50.764;4.332;2022-09-12T17:14:58;3.55;;;1.70;;
25581;SDS011;13462;50.764;4.332;2022-09-12T17:17:24;1.73;;;1.63;;
25581;SDS011;13462;50.764;4.332;2022-09-12T17:19:50;2.83;;;1.42;;
25581;SDS011;13462;50.764;4.332;2022-09-12T17:22:17;3.78;;;1.60;;
25581;SDS011;13462;50.764;4.332;2022-09-12T17:24:43;2.63;;;1.40;;
25581;SDS011;13462;50.764;4.332;2022-09-12T17:27:09;2.33;;;1.50;;
25581;SDS011;13462;50.764;4.332;2022-09-12T17:29:35;3.95;;;2.40;;
25581;SDS011;13462;50.764;4.332;2022-09-12T17:32:02;2.35;;;1.60;;
25581;SDS011;13462;50.764;4.332;2022-09-12T17:34:28;2.30;;;2.10;;